Time;durP1;ratioP1;P1;durP2;ratioP2;P2;SDS_P1;SDS_P2;PMS_P1;PMS_P2;Temp;Humidity;BMP_temperature;BMP_pressure;BME280_temperature;BME280_humidity;BME280_pressure;Samples;Min_cycle;Max_cycle;Signal;HPM_P1;HPM_P2
2023/05/07 00:02:03;;;;;;;;;;;;;;;14.66;87.51;101586.97;5053403;28;19921;-65
2023/05/07 00:04:35;;;;;;;;;;;;;;;14.68;86.85;101579.59;5054228;28;19913;-65
2023/05/07 00:07:00;;;;;;;;;;;;;;;14.71;87.06;101575.75;5057721;28;20025;-65
2023/05/07 00:09:25;;;;;;;;;;;;;;;14.72;86.41;101586.25;5061928;28;20388;-65
2023/05/07 00:11:50;;;;;;;;;;;;;;;14.72;86.65;101580.06;5056560;28;19923;-65
2023/05/07 00:14:16;;;;;;;;;;;;;;;14.72;86.46;101575.56;5055725;28;20465;-65
2023/05/07 00:16:41;;;;;;;;;;;;;;;14.72;86.33;101572.88;5051743;28;19923;-65
2023/05/07 00:19:06;;;;;;;;;;;;;;;14.66;86.79;101554.06;5062810;28;20339;-65
2023/05/07 00:21:31;;;;;;;;;;;;;;;14.70;86.59;101569.56;5062620;28;19920;-65
2023/05/07 00:23:56;;;;;;;;;;;;;;;14.70;86.36;101566.06;5070544;28;19989;-65
2023/05/07 00:26:22;;;;;;;;;;;;;;;14.69;86.20;101564.41;5061438;28;19916;-67
2023/05/07 00:28:47;;;;;;;;;;;;;;;14.70;85.97;101561.53;5062251;28;20456;-66
2023/05/07 00:31:12;;;;;;;;;;;;;;;14.70;86.64;101556.19;5067851;28;19919;-65
2023/05/07 00:33:37;;;;;;;;;;;;;;;14.72;86.65;101564.88;5063040;28;19917;-65
2023/05/07 00:36:03;;;;;;;;;;;;;;;14.72;86.40;101564.03;5068900;28;19951;-65
2023/05/07 00:38:28;;;;;;;;;;;;;;;14.72;86.40;101556.84;5060771;28;19917;-65
2023/05/07 00:40:53;;;;;;;;;;;;;;;14.74;86.14;101559.34;5058367;28;19920;-65
2023/05/07 00:43:18;;;;;;;;;;;;;;;14.74;86.28;101549.47;5058859;28;19916;-64
2023/05/07 00:45:44;;;;;;;;;;;;;;;14.77;85.98;101556.31;5056296;28;20370;-65
2023/05/07 00:48:09;;;;;;;;;;;;;;;14.76;86.15;101552.00;5058220;28;20406;-65
2023/05/07 00:50:34;;;;;;;;;;;;;;;14.75;85.78;101551.16;5058651;28;20070;-65
2023/05/07 00:53:00;;;;;;;;;;;;;;;14.76;85.81;101549.31;5060298;28;19920;-65
2023/05/07 00:55:25;;;;;;;;;;;;;;;14.76;86.21;101550.16;5058870;28;19919;-66
2023/05/07 00:57:51;;;;;;;;;;;;;;;14.77;86.30;101543.78;5059973;28;19944;-65
2023/05/07 01:00:16;;;;;;;;;;;;;;;14.78;86.26;101547.28;5060765;28;19913;-65
2023/05/07 01:02:41;;;;;;;;;;;;;;;14.78;85.88;101548.13;5058618;28;20012;-65
2023/05/07 01:05:09;;;;;;;;;;;;;;;14.80;85.95;101546.09;5055368;28;20504;-65
2023/05/07 01:07:35;;;;;;;;;;;;;;;14.83;85.64;101552.94;5064292;28;20088;-65
2023/05/07 01:10:01;;;;;;;;;;;;;;;14.84;85.98;101547.41;5068943;28;19924;-66
2023/05/07 01:12:27;;;;;;;;;;;;;;;14.84;86.04;101543.88;5062590;28;20011;-65
2023/05/07 01:14:52;;;;;;;;;;;;;;;14.83;86.25;101536.88;5064791;28;19912;-65
2023/05/07 01:17:18;;;;;;;;;;;;;;;14.82;86.22;101540.56;5058143;28;19924;-65
2023/05/07 01:19:44;;;;;;;;;;;;;;;14.82;86.35;101545.91;5063749;28;19917;-65
2023/05/07 01:22:12;;;;;;;;;;;;;;;14.83;86.12;101529.69;5060507;28;20011;-65
2023/05/07 01:24:38;;;;;;;;;;;;;;;14.85;86.06;101538.34;5060057;28;19968;-65
2023/05/07 01:27:03;;;;;;;;;;;;;;;14.85;86.24;101543.72;5062772;28;20045;-65
2023/05/07 01:29:28;;;;;;;;;;;;;;;14.85;86.21;101535.69;5058362;28;19917;-65
2023/05/07 01:31:54;;;;;;;;;;;;;;;14.82;86.54;101533.38;5065906;28;19962;-65
2023/05/07 01:34:21;;;;;;;;;;;;;;;14.81;86.45;101530.88;5058485;28;19978;-65
2023/05/07 01:36:46;;;;;;;;;;;;;;;14.81;86.27;101520.19;5064064;28;19950;-65
2023/05/07 01:39:12;;;;;;;;;;;;;;;14.80;86.26;101535.41;5068434;28;19959;-65
2023/05/07 01:41:37;;;;;;;;;;;;;;;14.79;86.79;101519.53;5063685;28;19951;-64
2023/05/07 01:44:03;;;;;;;;;;;;;;;14.77;86.81;101519.72;5052083;28;19952;-64
2023/05/07 01:46:29;;;;;;;;;;;;;;;14.77;86.87;101524.25;5052469;28;20394;-65
2023/05/07 01:48:55;;;;;;;;;;;;;;;14.77;86.80;101519.72;5052072;28;19917;-65
2023/05/07 01:51:21;;;;;;;;;;;;;;;14.79;86.96;101516.88;5057439;28;19920;-65
2023/05/07 01:53:50;;;;;;;;;;;;;;;14.79;86.99;101514.19;5056332;28;19920;-65
2023/05/07 01:56:15;;;;;;;;;;;;;;;14.79;86.95;101516.88;5060090;28;20325;-64
2023/05/07 01:58:40;;;;;;;;;;;;;;;14.78;86.95;101513.38;5056079;28;19921;-65
2023/05/07 02:01:06;;;;;;;;;;;;;;;14.79;86.84;101514.19;5063884;28;19955;-64
2023/05/07 02:03:31;;;;;;;;;;;;;;;14.79;86.62;101522.22;5059935;28;19991;-65
2023/05/07 02:05:56;;;;;;;;;;;;;;;14.79;86.75;101525.72;5056792;28;20440;-64
2023/05/07 02:08:21;;;;;;;;;;;;;;;14.81;86.53;101518.34;5060316;28;19999;-64
2023/05/07 02:10:46;;;;;;;;;;;;;;;14.81;86.69;101517.50;5058866;28;20267;-65
2023/05/07 02:13:11;;;;;;;;;;;;;;;14.81;86.72;101521.03;5062996;28;20046;-64
2023/05/07 02:15:37;;;;;;;;;;;;;;;14.81;86.65;101514.84;5061441;28;20430;-65
2023/05/07 02:18:11;;;;;;;;;;;;;;;14.80;86.88;101510.50;5063052;28;19924;-65
2023/05/07 02:20:36;;;;;;;;;;;;;;;14.75;87.39;101508.38;5058165;28;20455;-65
2023/05/07 02:23:02;;;;;;;;;;;;;;;14.70;87.74;101508.06;5060988;28;19970;-65
2023/05/07 02:25:27;;;;;;;;;;;;;;;14.67;87.54;101511.09;5063262;28;19978;-65
2023/05/07 02:27:52;;;;;;;;;;;;;;;14.66;88.10;101511.28;5061177;28;19916;-64
2023/05/07 02:30:17;;;;;;;;;;;;;;;14.63;87.83;101512.47;5059965;28;19916;-64
2023/05/07 02:32:43;;;;;;;;;;;;;;;14.63;87.96;101519.66;5062988;28;19912;-66
2023/05/07 02:35:08;;;;;;;;;;;;;;;14.61;88.35;101511.84;5067976;28;19916;-65
2023/05/07 02:37:33;;;;;;;;;;;;;;;14.60;88.20;101523.53;5062409;28;20029;-65
2023/05/07 02:39:58;;;;;;;;;;;;;;;14.58;88.30;101517.53;5064109;28;19913;-64
2023/05/07 02:42:23;;;;;;;;;;;;;;;14.56;88.16;101515.06;5061302;28;20389;-65
2023/05/07 02:44:48;;;;;;;;;;;;;;;14.56;88.51;101512.38;5063210;28;20015;-64
2023/05/07 02:47:15;;;;;;;;;;;;;;;14.59;88.29;101513.88;5061352;28;19912;-64
2023/05/07 02:49:40;;;;;;;;;;;;;;;14.59;88.44;101511.19;5062902;28;20016;-64
2023/05/07 02:52:05;;;;;;;;;;;;;;;14.58;88.61;101514.88;5069294;28;20003;-64
2023/05/07 02:54:31;;;;;;;;;;;;;;;14.57;88.60;101516.72;5063374;28;20402;-65
2023/05/07 02:56:56;;;;;;;;;;;;;;;14.60;88.64;101512.03;5059616;28;20015;-64
2023/05/07 02:59:21;;;;;;;;;;;;;;;14.61;88.22;101511.00;5061152;28;20011;-65
2023/05/07 03:01:46;;;;;;;;;;;;;;;14.62;88.52;101515.34;5057154;28;20051;-64
2023/05/07 03:04:12;;;;;;;;;;;;;;;14.63;88.43;101517.00;5054086;28;19912;-65
2023/05/07 03:06:37;;;;;;;;;;;;;;;14.64;88.25;101516.00;5055366;28;19916;-64
2023/05/07 03:09:02;;;;;;;;;;;;;;;14.65;88.41;101515.81;5062980;28;19923;-65
2023/05/07 03:11:28;;;;;;;;;;;;;;;14.66;88.34;101516.63;5062362;28;19963;-65
2023/05/07 03:13:53;;;;;;;;;;;;;;;14.67;88.36;101512.94;5056043;28;20366;-65
2023/05/07 03:16:18;;;;;;;;;;;;;;;14.67;88.33;101520.97;5058916;28;20484;-65
2023/05/07 03:18:43;;;;;;;;;;;;;;;14.67;88.28;101515.63;5060330;28;19912;-65
2023/05/07 03:21:08;;;;;;;;;;;;;;;14.68;88.00;101517.28;5057530;28;19970;-65
2023/05/07 03:23:34;;;;;;;;;;;;;;;14.66;87.95;101512.13;5058421;28;19924;-65
2023/05/07 03:25:59;;;;;;;;;;;;;;;14.67;87.81;101518.28;5060989;28;19917;-65
2023/05/07 03:28:24;;;;;;;;;;;;;;;14.66;87.98;101517.47;5062087;28;19916;-65
2023/05/07 03:30:50;;;;;;;;;;;;;;;14.66;87.74;101513.97;5056757;28;19966;-65
2023/05/07 03:33:15;;;;;;;;;;;;;;;14.66;87.57;101514.78;5057909;28;19956;-64
2023/05/07 03:35:40;;;;;;;;;;;;;;;14.64;87.81;101510.63;5054461;28;20041;-65
2023/05/07 03:38:07;;;;;;;;;;;;;;;14.64;87.65;101508.81;5061080;28;19983;-65
2023/05/07 03:40:32;;;;;;;;;;;;;;;14.65;87.71;101504.28;5054334;28;20015;-65
2023/05/07 03:42:59;;;;;;;;;;;;;;;14.65;88.04;101505.13;5058393;28;20015;-64
2023/05/07 03:45:24;;;;;;;;;;;;;;;14.65;88.16;101505.13;5060219;28;19923;-64
2023/05/07 03:47:49;;;;;;;;;;;;;;;14.65;87.97;101512.31;5056401;28;19912;-65
2023/05/07 03:50:15;;;;;;;;;;;;;;;14.63;87.94;101500.97;5062522;28;19922;-65
2023/05/07 03:52:40;;;;;;;;;;;;;;;14.62;88.25;101510.81;5064032;28;19920;-66
2023/05/07 03:55:06;;;;;;;;;;;;;;;14.62;87.70;101510.81;5068376;28;20342;-65
2023/05/07 03:57:31;;;;;;;;;;;;;;;14.63;87.67;101514.31;5069868;28;20290;-65
2023/05/07 03:59:56;;;;;;;;;;;;;;;14.62;87.90;101513.50;5060160;28;19960;-66
2023/05/07 04:02:21;;;;;;;;;;;;;;;14.64;87.88;101513.31;5057724;28;19917;-65
2023/05/07 04:04:48;;;;;;;;;;;;;;;14.66;87.83;101516.63;5056403;28;19919;-65
2023/05/07 04:07:13;;;;;;;;;;;;;;;14.66;87.65;101522.81;5061338;28;19966;-65
2023/05/07 04:09:38;;;;;;;;;;;;;;;14.68;87.53;101525.31;5060648;28;19964;-65
2023/05/07 04:12:03;;;;;;;;;;;;;;;14.68;88.01;101522.63;5058508;28;20004;-65
2023/05/07 04:14:30;;;;;;;;;;;;;;;14.67;87.78;101529.00;5067743;28;19927;-65
2023/05/07 04:16:55;;;;;;;;;;;;;;;14.65;87.93;101528.34;5070113;28;20030;-65
2023/05/07 04:19:20;;;;;;;;;;;;;;;14.64;87.75;101534.69;5054674;28;20551;-65
2023/05/07 04:21:45;;;;;;;;;;;;;;;14.63;87.83;101531.19;5064717;28;19959;-65
2023/05/07 04:24:10;;;;;;;;;;;;;;;14.63;87.89;101533.88;5053902;28;19917;-66
2023/05/07 04:26:36;;;;;;;;;;;;;;;14.60;88.32;101523.53;5061493;28;19917;-65
2023/05/07 04:29:01;;;;;;;;;;;;;;;14.59;88.30;101531.75;5061871;28;19924;-65
2023/05/07 04:31:26;;;;;;;;;;;;;;;14.59;88.42;101529.91;5066016;28;19923;-65
2023/05/07 04:33:51;;;;;;;;;;;;;;;14.60;88.23;101536.06;5064610;28;19916;-64
2023/05/07 04:36:17;;;;;;;;;;;;;;;14.60;88.63;101531.56;5061641;28;19920;-65
2023/05/07 04:38:42;;;;;;;;;;;;;;;14.60;88.69;101533.41;5065711;28;19960;-64
2023/05/07 04:41:08;;;;;;;;;;;;;;;14.60;88.64;101536.91;5068119;28;20019;-65
2023/05/07 04:43:33;;;;;;;;;;;;;;;14.61;88.65;101540.41;5070698;28;19916;-65
2023/05/07 04:45:59;;;;;;;;;;;;;;;14.63;88.82;101538.38;5064122;28;20345;-65
2023/05/07 04:48:24;;;;;;;;;;;;;;;14.62;89.46;101542.06;5056130;28;20011;-65
2023/05/07 04:50:50;;;;;;;;;;;;;;;14.60;88.92;101547.59;5056658;28;19924;-65
2023/05/07 04:53:15;;;;;;;;;;;;;;;14.61;89.39;101548.44;5063493;28;19967;-65
2023/05/07 04:55:40;;;;;;;;;;;;;;;14.60;88.94;101542.25;5068325;28;19916;-64
2023/05/07 04:58:06;;;;;;;;;;;;;;;14.60;88.77;101544.94;5057464;28;19927;-64
2023/05/07 05:00:31;;;;;;;;;;;;;;;14.60;89.30;101544.94;5061692;28;19916;-65
2023/05/07 05:02:56;;;;;;;;;;;;;;;14.60;89.68;101547.59;5068285;28;19916;-64
2023/05/07 05:05:21;;;;;;;;;;;;;;;14.61;89.84;101556.44;5065341;28;20337;-65
2023/05/07 05:07:47;;;;;;;;;;;;;;;14.62;90.04;101547.41;5067322;28;19916;-66
2023/05/07 05:10:12;;;;;;;;;;;;;;;14.64;90.03;101551.56;5060513;28;19913;-65
2023/05/07 05:12:37;;;;;;;;;;;;;;;14.67;89.78;101556.56;5064509;28;19979;-65
2023/05/07 05:15:03;;;;;;;;;;;;;;;14.70;90.28;101556.19;5059908;28;19924;-65
2023/05/07 05:17:28;;;;;;;;;;;;;;;14.74;90.37;101559.34;5054020;28;20054;-65
2023/05/07 05:19:53;;;;;;;;;;;;;;;14.77;90.45;101559.84;5066042;28;20358;-64
2023/05/07 05:22:18;;;;;;;;;;;;;;;14.80;90.43;101569.34;5067450;28;20343;-64
2023/05/07 05:24:43;;;;;;;;;;;;;;;14.82;90.49;101564.63;5070133;28;19913;-66
2023/05/07 05:27:09;;;;;;;;;;;;;;;14.85;90.42;101557.06;5065961;28;19922;-65
2023/05/07 05:29:34;;;;;;;;;;;;;;;14.86;90.83;101564.09;5065581;28;19917;-65
2023/05/07 05:31:59;;;;;;;;;;;;;;;14.90;90.48;101561.88;5062641;28;19956;-64
2023/05/07 05:34:24;;;;;;;;;;;;;;;14.92;90.65;101570.56;5058247;28;19917;-65
2023/05/07 05:36:49;;;;;;;;;;;;;;;14.94;90.75;101578.38;5063095;28;19925;-65
2023/05/07 05:39:15;;;;;;;;;;;;;;;14.94;90.70;101578.38;5064968;28;19916;-64
2023/05/07 05:41:40;;;;;;;;;;;;;;;14.96;91.02;101584.38;5056216;28;20024;-66
2023/05/07 05:44:05;;;;;;;;;;;;;;;14.96;90.93;101579.88;5066131;28;19956;-65
2023/05/07 05:46:31;;;;;;;;;;;;;;;14.98;90.65;101585.03;5063775;28;21093;-65
2023/05/07 05:48:56;;;;;;;;;;;;;;;14.98;90.96;101574.34;5066548;28;20023;-66
2023/05/07 05:51:22;;;;;;;;;;;;;;;14.99;91.28;101584.84;5068747;28;19924;-64
2023/05/07 05:53:47;;;;;;;;;;;;;;;14.99;91.52;101584.03;5069944;28;20375;-64
2023/05/07 05:56:12;;;;;;;;;;;;;;;15.00;91.61;101580.34;5068929;28;20540;-65
2023/05/07 05:58:37;;;;;;;;;;;;;;;15.02;91.46;101584.50;5065174;28;19912;-65
2023/05/07 06:01:03;;;;;;;;;;;;;;;15.02;91.79;101581.81;5063981;28;19924;-66
2023/05/07 06:03:28;;;;;;;;;;;;;;;15.03;91.56;101574.63;5058097;28;19928;-65
2023/05/07 06:05:53;;;;;;;;;;;;;;;15.05;91.71;101570.78;5063042;28;21350;-65
2023/05/07 06:08:18;;;;;;;;;;;;;;;15.10;92.09;101578.25;5069015;28;19923;-66
2023/05/07 06:10:43;;;;;;;;;;;;;;;15.12;92.04;101581.56;5063188;28;19917;-64
2023/05/07 06:13:09;;;;;;;;;;;;;;;15.15;92.44;101587.38;5050201;28;19924;-66
2023/05/07 06:15:34;;;;;;;;;;;;;;;15.20;92.51;101594.88;5060431;28;19917;-64
2023/05/07 06:17:59;;;;;;;;;;;;;;;15.23;92.76;101588.31;5060203;28;19913;-65
2023/05/07 06:20:25;;;;;;;;;;;;;;;15.27;92.33;101585.09;5058894;28;20297;-65
2023/05/07 06:22:50;;;;;;;;;;;;;;;15.30;92.59;101589.22;5059736;28;20259;-65
2023/05/07 06:25:15;;;;;;;;;;;;;;;15.33;92.88;101594.25;5066070;28;20050;-65
2023/05/07 06:27:40;;;;;;;;;;;;;;;15.35;92.93;101585.03;5056943;28;20305;-64
2023/05/07 06:30:06;;;;;;;;;;;;;;;15.37;92.79;101579.47;5059265;28;19963;-64
2023/05/07 06:32:31;;;;;;;;;;;;;;;15.41;92.97;101586.13;5059735;28;19947;-60
2023/05/07 06:34:56;;;;;;;;;;;;;;;15.44;93.07;101588.44;5059065;28;19916;-59
2023/05/07 06:37:22;;;;;;;;;;;;;;;15.46;92.83;101586.41;5057542;28;20375;-59
2023/05/07 06:39:47;;;;;;;;;;;;;;;15.52;92.82;101590.19;5068297;28;19951;-59
2023/05/07 06:42:12;;;;;;;;;;;;;;;15.54;92.82;101591.66;5064548;28;19920;-59
2023/05/07 06:44:37;;;;;;;;;;;;;;;15.58;92.54;101592.97;5066441;28;19942;-59
2023/05/07 06:47:02;;;;;;;;;;;;;;;15.63;92.75;101595.13;5059160;28;20390;-59
2023/05/07 06:49:28;;;;;;;;;;;;;;;15.65;92.87;101595.75;5058689;28;19936;-59
2023/05/07 06:51:53;;;;;;;;;;;;;;;15.58;92.49;101592.97;5056281;28;20623;-59
2023/05/07 06:54:18;;;;;;;;;;;;;;;15.63;92.30;101601.31;5058653;28;19916;-59
2023/05/07 06:56:43;;;;;;;;;;;;;;;15.67;92.46;101607.13;5050540;28;20063;-60
2023/05/07 06:59:08;;;;;;;;;;;;;;;15.69;92.34;101600.56;5060322;28;19912;-58
2023/05/07 07:01:34;;;;;;;;;;;;;;;15.72;92.57;101604.72;5053113;28;19947;-60
2023/05/07 07:03:59;;;;;;;;;;;;;;;15.75;92.36;101602.50;5058491;28;20478;-59
2023/05/07 07:06:25;;;;;;;;;;;;;;;15.80;92.74;101605.44;5063791;28;19917;-58
2023/05/07 07:08:50;;;;;;;;;;;;;;;15.83;92.63;101600.72;5059640;28;20392;-59
2023/05/07 07:11:16;;;;;;;;;;;;;;;15.87;92.73;101607.38;5066054;28;19969;-59
2023/05/07 07:13:42;;;;;;;;;;;;;;;15.92;92.56;101602.31;5057989;28;20335;-59
2023/05/07 07:16:07;;;;;;;;;;;;;;;15.97;92.93;101602.56;5060696;28;19916;-59
2023/05/07 07:18:32;;;;;;;;;;;;;;;16.02;92.74;101600.16;5059418;28;20597;-59
2023/05/07 07:20:58;;;;;;;;;;;;;;;16.09;93.19;101609.94;5059270;28;19929;-59
2023/05/07 07:23:24;;;;;;;;;;;;;;;16.15;93.02;101605.66;5058286;28;19959;-60
2023/05/07 07:25:49;;;;;;;;;;;;;;;16.21;93.16;101602.25;5062307;28;19923;-59
2023/05/07 07:28:14;;;;;;;;;;;;;;;16.26;92.98;101599.00;5058046;28;19999;-59
2023/05/07 07:30:39;;;;;;;;;;;;;;;16.28;92.31;101605.81;5058868;28;20445;-60
2023/05/07 07:33:05;;;;;;;;;;;;;;;16.30;92.48;101611.81;5046167;28;19928;-60
2023/05/07 07:35:30;;;;;;;;;;;;;;;16.36;92.29;101613.75;5059847;28;19920;-60
2023/05/07 07:37:56;;;;;;;;;;;;;;;16.42;92.13;101612.97;5058992;28;20398;-60
2023/05/07 07:40:21;;;;;;;;;;;;;;;16.47;92.41;101614.25;5067011;28;19965;-59
2023/05/07 07:42:46;;;;;;;;;;;;;;;16.51;92.24;101624.44;5061552;28;19952;-60
2023/05/07 07:45:12;;;;;;;;;;;;;;;16.55;91.88;101627.56;5055315;28;19916;-60
2023/05/07 07:47:37;;;;;;;;;;;;;;;16.55;91.83;101617.66;5053652;28;20308;-60
2023/05/07 07:50:02;;;;;;;;;;;;;;;16.59;91.46;101624.31;5057365;28;19931;-59
2023/05/07 07:52:27;;;;;;;;;;;;;;;16.60;91.31;101630.50;5055211;28;19920;-59
2023/05/07 07:54:53;;;;;;;;;;;;;;;16.62;91.29;101625.78;5057778;28;19916;-61
2023/05/07 07:57:18;;;;;;;;;;;;;;;16.60;90.97;101628.66;5053207;28;19968;-60
2023/05/07 07:59:43;;;;;;;;;;;;;;;16.62;91.14;101629.28;5066822;28;19916;-59
2023/05/07 08:02:08;;;;;;;;;;;;;;;16.67;90.90;101629.56;5053103;28;19928;-59
2023/05/07 08:04:34;;;;;;;;;;;;;;;16.71;91.06;101632.69;5062530;28;19913;-59
2023/05/07 08:06:59;;;;;;;;;;;;;;;16.76;90.99;101627.56;5060402;28;19938;-59
2023/05/07 08:09:24;;;;;;;;;;;;;;;16.83;90.95;101633.84;5056455;28;19987;-59
2023/05/07 08:11:49;;;;;;;;;;;;;;;16.89;91.37;101627.72;5053576;28;19916;-60
2023/05/07 08:14:15;;;;;;;;;;;;;;;16.96;91.08;101625.91;5068204;28;19917;-60
2023/05/07 08:16:40;;;;;;;;;;;;;;;17.02;91.01;101621.63;5066111;28;19916;-59
2023/05/07 08:19:06;;;;;;;;;;;;;;;17.11;90.70;101627.69;5068220;28;19916;-60
2023/05/07 08:21:31;;;;;;;;;;;;;;;17.21;90.72;101630.88;5057398;28;19916;-60
2023/05/07 08:23:56;;;;;;;;;;;;;;;17.29;90.46;101646.81;5062227;28;20314;-59
2023/05/07 08:26:23;;;;;;;;;;;;;;;17.31;90.35;101628.66;5053412;28;22446;-58
2023/05/07 08:28:48;;;;;;;;;;;;;;;17.44;90.04;101638.69;5064942;28;19924;-59
2023/05/07 08:31:14;;;;;;;;;;;;;;;17.51;89.79;101644.91;5066966;28;19927;-59
2023/05/07 08:33:39;;;;;;;;;;;;;;;17.56;89.23;101637.09;5063839;28;20392;-59
2023/05/07 08:36:05;;;;;;;;;;;;;;;17.56;88.76;101645.16;5058232;28;20559;-60
2023/05/07 08:38:31;;;;;;;;;;;;;;;17.54;87.98;101642.66;5057205;28;19925;-60
2023/05/07 08:40:56;;;;;;;;;;;;;;;17.52;87.85;101639.34;5061607;28;20297;-60
2023/05/07 08:43:21;;;;;;;;;;;;;;;17.54;87.92;101634.59;5073233;28;20328;-60
2023/05/07 08:45:49;;;;;;;;;;;;;;;17.56;87.87;101637.94;5066055;28;19916;-61
2023/05/07 08:48:15;;;;;;;;;;;;;;;17.60;87.61;101639.19;5056792;28;19924;-59
2023/05/07 08:50:40;;;;;;;;;;;;;;;17.64;87.33;101645.84;5061280;28;19925;-59
2023/05/07 08:53:05;;;;;;;;;;;;;;;17.72;87.34;101638.69;5063661;28;19973;-59
2023/05/07 08:55:31;;;;;;;;;;;;;;;17.79;87.46;101642.22;5057229;28;19923;-59
2023/05/07 08:57:56;;;;;;;;;;;;;;;17.88;87.07;101647.22;5057105;28;20381;-60
2023/05/07 09:00:21;;;;;;;;;;;;;;;17.94;86.10;101643.78;5058442;28;19917;-61
2023/05/07 09:02:46;;;;;;;;;;;;;;;17.96;85.73;101651.63;5057029;28;19927;-59
2023/05/07 09:05:12;;;;;;;;;;;;;;;18.01;86.20;101645.66;5061726;28;19920;-59
2023/05/07 09:07:37;;;;;;;;;;;;;;;18.05;86.00;101645.06;5065000;28;20076;-59
2023/05/07 09:10:04;;;;;;;;;;;;;;;18.11;86.12;101638.88;5051795;28;19925;-59
2023/05/07 09:12:29;;;;;;;;;;;;;;;18.20;85.77;101647.56;5059210;28;19932;-59
2023/05/07 09:14:54;;;;;;;;;;;;;;;18.24;85.35;101659.63;5059925;28;19924;-59
2023/05/07 09:17:19;;;;;;;;;;;;;;;18.27;85.28;101649.28;5063254;28;19916;-60
2023/05/07 09:19:45;;;;;;;;;;;;;;;18.33;85.42;101650.34;5060390;28;19959;-59
2023/05/07 09:22:11;;;;;;;;;;;;;;;18.39;85.09;101643.31;5058324;28;19917;-61
2023/05/07 09:24:37;;;;;;;;;;;;;;;18.41;84.81;101650.16;5062468;28;19939;-60
2023/05/07 09:27:03;;;;;;;;;;;;;;;18.45;84.60;101655.94;5069122;28;19912;-59
2023/05/07 09:29:29;;;;;;;;;;;;;;;18.48;84.44;101656.38;5070746;28;19919;-59
2023/05/07 09:31:55;;;;;;;;;;;;;;;18.52;84.22;101648.75;5068794;28;20007;-59
2023/05/07 09:34:20;;;;;;;;;;;;;;;18.51;83.83;101657.84;5069315;28;20003;-60
2023/05/07 09:36:45;;;;;;;;;;;;;;;18.48;83.77;101653.69;5067588;28;19916;-59
2023/05/07 09:39:10;;;;;;;;;;;;;;;18.47;83.50;101652.03;5069847;28;19978;-58
2023/05/07 09:41:43;;;;;;;;;;;;;;;18.47;83.08;101651.19;5063510;28;19917;-59
2023/05/07 09:44:08;;;;;;;;;;;;;;;18.47;82.75;101651.19;5070370;28;19919;-60
2023/05/07 09:46:36;;;;;;;;;;;;;;;18.48;82.73;101653.69;5067608;28;19916;-59
2023/05/07 09:49:02;;;;;;;;;;;;;;;18.46;82.25;101658.44;5063578;28;19974;-60
2023/05/07 09:51:32;;;;;;;;;;;;;;;18.46;82.29;101652.22;5056677;28;19917;-59
2023/05/07 09:54:00;;;;;;;;;;;;;;;18.52;82.62;101654.97;5061741;28;20007;-60
2023/05/07 09:56:25;;;;;;;;;;;;;;;18.58;82.76;101664.06;5062701;28;19966;-59
2023/05/07 09:58:52;;;;;;;;;;;;;;;18.63;82.61;101653.56;5070840;28;19913;-59
2023/05/07 10:01:19;;;;;;;;;;;;;;;18.66;82.58;101653.16;5064960;28;19956;-60
2023/05/07 10:03:45;;;;;;;;;;;;;;;18.73;82.65;101656.66;5062307;28;20336;-60
2023/05/07 10:06:11;;;;;;;;;;;;;;;18.81;82.92;101656.50;5068244;28;19974;-59
2023/05/07 10:08:37;;;;;;;;;;;;;;;18.85;82.45;101656.91;5064561;28;19920;-60
2023/05/07 10:11:08;;;;;;;;;;;;;;;18.88;82.66;101657.31;5068674;28;19913;-59
2023/05/07 10:13:37;;;;;;;;;;;;;;;18.94;82.46;101657.53;5068934;28;19916;-60
2023/05/07 10:16:03;;;;;;;;;;;;;;;18.97;82.80;101662.50;5055000;28;20073;-59
2023/05/07 10:18:32;;;;;;;;;;;;;;;19.01;82.95;101658.34;5055639;28;20426;-60
2023/05/07 10:21:01;;;;;;;;;;;;;;;19.02;82.45;101647.38;5063383;28;19924;-60
2023/05/07 10:23:27;;;;;;;;;;;;;;;19.02;82.17;101654.63;5064226;28;20393;-59
2023/05/07 10:25:54;;;;;;;;;;;;;;;19.03;82.25;101657.13;5069519;28;19912;-60
2023/05/07 10:28:21;;;;;;;;;;;;;;;19.03;81.95;101658.97;5065869;28;20078;-59
2023/05/07 10:31:02;;;;;;;;;;;;;;;19.03;81.16;101656.28;5067739;28;20019;-59
2023/05/07 10:33:28;;;;;;;;;;;;;;;18.98;80.57;101654.22;5066147;28;20397;-59
2023/05/07 10:35:57;;;;;;;;;;;;;;;18.99;80.39;101663.94;5069499;28;20389;-59
2023/05/07 10:38:22;;;;;;;;;;;;;;;18.99;80.17;101661.25;5067422;28;19923;-59
2023/05/07 10:40:47;;;;;;;;;;;;;;;19.02;80.33;101662.72;5060470;28;20526;-59
2023/05/07 10:43:13;;;;;;;;;;;;;;;19.04;80.11;101660.63;5068068;28;20297;-59
2023/05/07 10:45:38;;;;;;;;;;;;;;;19.07;79.88;101665.59;5069412;28;20378;-59
2023/05/07 10:48:13;;;;;;;;;;;;;;;19.06;80.16;101662.09;5062481;28;19913;-60
2023/05/07 10:50:39;;;;;;;;;;;;;;;19.09;80.17;101660.88;5068117;28;20360;-60
2023/05/07 10:53:25;;;;;;;;;;;;;;;19.12;80.20;101666.66;5063262;28;20853;-59
2023/05/07 10:55:52;;;;;;;;;;;;;;;19.20;80.33;101660.25;5063012;28;20311;-59
2023/05/07 10:58:20;;;;;;;;;;;;;;;19.29;80.46;101658.97;5058634;28;20013;-59
2023/05/07 11:00:45;;;;;;;;;;;;;;;19.41;80.60;101659.19;5064308;28;19944;-59
2023/05/07 11:03:11;;;;;;;;;;;;;;;19.46;80.12;101662.91;5067741;28;19948;-59
2023/05/07 11:05:37;;;;;;;;;;;;;;;19.49;79.70;101659.81;5061281;28;20285;-59
2023/05/07 11:08:03;;;;;;;;;;;;;;;19.53;79.32;101662.06;5064649;28;19912;-60
2023/05/07 11:10:47;;;;;;;;;;;;;;;19.56;79.13;101657.13;5068313;28;19931;-59
2023/05/07 11:13:12;;;;;;;;;;;;;;;19.60;79.14;101668.31;5059234;28;19927;-59
2023/05/07 11:15:39;;;;;;;;;;;;;;;19.65;78.92;101668.50;5056320;28;19917;-59
2023/05/07 11:18:04;;;;;;;;;;;;;;;19.68;78.77;101665.41;5063690;28;19940;-59
2023/05/07 11:20:45;;;;;;;;;;;;;;;19.71;78.54;101659.59;5067976;28;21418;-59
2023/05/07 11:23:30;;;;;;;;;;;;;;;19.75;78.00;101669.75;5068855;28;19978;-59
2023/05/07 11:26:08;;;;;;;;;;;;;;;19.74;78.18;101668.09;5056413;28;19924;-60
2023/05/07 11:28:44;;;;;;;;;;;;;;;19.78;78.30;101669.31;5056473;28;19920;-60
2023/05/07 11:31:09;;;;;;;;;;;;;;;19.82;77.95;101675.09;5057112;28;20282;-60
2023/05/07 11:33:35;;;;;;;;;;;;;;;19.81;77.04;101668.06;5060903;28;19916;-60
2023/05/07 11:36:02;;;;;;;;;;;;;;;19.84;77.29;101667.63;5061790;28;19916;-60
2023/05/07 11:38:28;;;;;;;;;;;;;;;19.90;77.31;101671.34;5059296;28;20502;-60
2023/05/07 11:40:54;;;;;;;;;;;;;;;19.98;77.57;101671.97;5067128;28;20465;-59
2023/05/07 11:43:20;;;;;;;;;;;;;;;20.04;77.35;101672.97;5066646;28;19917;-59
2023/05/07 11:45:46;;;;;;;;;;;;;;;20.14;77.28;101669.81;5058601;28;19934;-59
2023/05/07 11:48:12;;;;;;;;;;;;;;;20.22;77.50;101678.50;5063318;28;19912;-59
2023/05/07 11:50:49;;;;;;;;;;;;;;;20.31;77.90;101668.31;5059576;28;19920;-60
2023/05/07 11:53:14;;;;;;;;;;;;;;;20.43;78.08;101669.31;5061995;28;20366;-59
2023/05/07 11:55:39;;;;;;;;;;;;;;;20.53;77.61;101672.38;5058386;28;20018;-59
2023/05/07 11:58:05;;;;;;;;;;;;;;;20.64;77.66;101668.16;5067086;28;19917;-59
2023/05/07 12:00:30;;;;;;;;;;;;;;;20.73;77.00;101669.56;5065890;28;19959;-59
2023/05/07 12:02:55;;;;;;;;;;;;;;;20.81;76.02;101673.84;5056729;28;19917;-59
2023/05/07 12:05:20;;;;;;;;;;;;;;;20.90;75.66;101672.56;5066923;28;19962;-59
2023/05/07 12:07:45;;;;;;;;;;;;;;;20.97;74.67;101662.53;5065976;28;20011;-59
2023/05/07 12:10:11;;;;;;;;;;;;;;;20.99;73.72;101673.94;5062358;28;19970;-59
2023/05/07 12:12:41;;;;;;;;;;;;;;;21.06;73.84;101672.03;5064082;28;20019;-59
2023/05/07 12:15:07;;;;;;;;;;;;;;;21.14;73.72;101677.16;5070853;28;19952;-59
2023/05/07 12:17:32;;;;;;;;;;;;;;;21.20;73.24;101676.28;5071924;28;19955;-58
2023/05/07 12:19:57;;;;;;;;;;;;;;;21.25;72.63;101678.34;5070712;28;19920;-59
2023/05/07 12:22:22;;;;;;;;;;;;;;;21.28;72.72;101678.72;5070462;28;19920;-59
2023/05/07 12:24:49;;;;;;;;;;;;;;;21.37;72.87;101671.16;5071189;28;19916;-60
2023/05/07 12:27:15;;;;;;;;;;;;;;;21.43;72.42;101673.00;5067910;28;19920;-60
2023/05/07 12:29:44;;;;;;;;;;;;;;;21.48;72.18;101669.63;5061820;28;20390;-59